Sylvan Beach, Texas
Current Conditions -  °F | °C
As of 10:50 AM on Sunday 23 Nov 2014 (Local Time) from KEFD Reporting Station
Clear Clear  
Wind Chill: 70°   Ceiling: Unl
Heat Index: 70°   Visibility: 10mi
Dew Point: 57°   Wind: 18mph
Humidity: 64%   Direction: 220°SW
Pressure: 29.68"   Gusts: NA
Location:  29.6785°N, 95.0483°W
Report Text: KEFD 231650Z 22016KT 10SM CLR 21/14 A2968
Loading
Personal Weather Stations






























Interactive Weather Map New forecast layout! Learn more

10-Day Weather Forecast

Advertisements
Track Severe Weather on mobile